createdAt,value
2018-11-04T00:00:46.638Z,4.97
2018-11-04T00:03:15.129Z,5.10
2018-11-04T00:05:43.501Z,5.20
2018-11-04T00:08:11.870Z,5.08
2018-11-04T00:10:40.295Z,5.78
2018-11-04T00:13:08.792Z,4.75
2018-11-04T00:15:37.159Z,4.92
2018-11-04T00:18:06.121Z,4.92
2018-11-04T00:20:35.065Z,4.87
2018-11-04T00:23:03.406Z,4.80
2018-11-04T00:25:31.802Z,4.53
2018-11-04T00:28:00.166Z,4.92
2018-11-04T00:30:28.536Z,4.67
2018-11-04T00:32:56.891Z,4.90
2018-11-04T00:35:25.838Z,4.90
2018-11-04T00:37:54.169Z,4.90
2018-11-04T00:40:23.665Z,4.58
2018-11-04T00:42:52.597Z,4.10
2018-11-04T00:45:21.044Z,4.58
2018-11-04T00:47:49.363Z,4.62
2018-11-04T00:50:17.800Z,3.92
2018-11-04T00:52:46.221Z,3.87
2018-11-04T00:55:14.893Z,4.47
2018-11-04T00:57:43.539Z,4.12
2018-11-04T01:00:18.781Z,3.83
2018-11-04T01:02:48.487Z,4.17
2018-11-04T01:05:17.616Z,4.15
2018-11-04T01:07:45.971Z,3.62
2018-11-04T01:10:15.202Z,4.25
2018-11-04T01:12:44.300Z,4.20
2018-11-04T01:15:13.893Z,4.35
2018-11-04T01:17:42.860Z,4.08
2018-11-04T01:20:13.301Z,3.50
2018-11-04T01:22:41.804Z,4.05
2018-11-04T01:25:11.077Z,3.98
2018-11-04T01:27:39.786Z,4.12
2018-11-04T01:30:11.058Z,4.08
2018-11-04T01:32:39.360Z,3.77
2018-11-04T01:35:08.297Z,3.83
2018-11-04T01:37:36.636Z,3.58
2018-11-04T01:40:06.385Z,3.77
2018-11-04T01:42:34.749Z,3.52
2018-11-04T01:45:03.119Z,3.60
2018-11-04T01:47:31.514Z,3.30
2018-11-04T01:49:59.884Z,3.85
2018-11-04T01:52:28.233Z,3.40
2018-11-04T01:54:58.486Z,4.00
2018-11-04T01:57:26.981Z,3.40
2018-11-04T01:59:55.340Z,3.33
2018-11-04T02:02:23.846Z,4.28
2018-11-04T02:04:52.194Z,3.52
2018-11-04T02:07:20.544Z,3.60
2018-11-04T02:09:48.928Z,3.27
2018-11-04T02:12:17.340Z,3.42
2018-11-04T02:14:45.680Z,3.77
2018-11-04T02:17:14.700Z,3.70
2018-11-04T02:19:43.054Z,3.40
2018-11-04T02:22:11.557Z,3.62
2018-11-04T02:24:39.924Z,3.30
2018-11-04T02:27:08.426Z,3.45
2018-11-04T02:29:36.813Z,3.62
2018-11-04T02:32:05.941Z,3.60
2018-11-04T02:34:34.977Z,3.55
2018-11-04T02:37:03.408Z,3.33
2018-11-04T02:39:32.576Z,3.12
2018-11-04T02:42:01.593Z,3.62
2018-11-04T02:44:30.261Z,3.52
2018-11-04T02:46:58.793Z,3.20
2018-11-04T02:49:27.180Z,3.50
2018-11-04T02:51:55.547Z,3.08
2018-11-04T02:54:24.038Z,3.42
2018-11-04T02:56:52.618Z,3.62
2018-11-04T02:59:21.263Z,3.22
2018-11-04T03:01:49.643Z,3.25
2018-11-04T03:04:18.219Z,3.33
2018-11-04T03:06:47.314Z,3.47
2018-11-04T03:09:15.651Z,3.40
2018-11-04T03:11:44.029Z,3.22
2018-11-04T03:14:12.408Z,3.60
2018-11-04T03:16:40.884Z,3.47
2018-11-04T03:19:10.217Z,3.40
2018-11-04T03:21:38.617Z,3.60
2018-11-04T03:24:06.939Z,3.27
2018-11-04T03:26:35.309Z,3.42
2018-11-04T03:29:03.725Z,3.50
2018-11-04T03:31:32.155Z,3.30
2018-11-04T03:34:01.225Z,3.52
2018-11-04T03:36:29.576Z,3.37
2018-11-04T03:38:58.056Z,3.80
2018-11-04T03:41:27.011Z,3.47
2018-11-04T03:43:55.328Z,3.27
2018-11-04T03:46:23.709Z,3.72
2018-11-04T03:48:52.031Z,3.17
2018-11-04T03:51:20.492Z,3.37
2018-11-04T03:53:48.809Z,3.37
2018-11-04T03:56:17.250Z,3.22
2018-11-04T03:58:45.609Z,3.15
2018-11-04T04:01:14.113Z,3.12
2018-11-04T04:03:42.966Z,3.12
2018-11-04T04:06:11.318Z,3.55
2018-11-04T04:08:39.708Z,3.22
2018-11-04T04:11:08.058Z,3.50
2018-11-04T04:13:36.776Z,3.05
2018-11-04T04:16:05.204Z,3.15
2018-11-04T04:18:34.150Z,3.35
2018-11-04T04:21:11.408Z,3.22
2018-11-04T04:23:41.141Z,3.47
2018-11-04T04:26:10.967Z,3.25
2018-11-04T04:28:39.978Z,3.35
2018-11-04T04:31:08.407Z,3.30
2018-11-04T04:33:36.806Z,3.08
2018-11-04T04:36:05.782Z,4.03
2018-11-04T04:38:34.231Z,3.52
2018-11-04T04:41:02.663Z,3.47
2018-11-04T04:43:31.177Z,3.67
2018-11-04T04:45:59.709Z,3.70
2018-11-04T04:48:28.113Z,4.20
2018-11-04T04:50:56.489Z,4.00
2018-11-04T04:53:25.590Z,3.75
2018-11-04T04:55:55.606Z,3.50
2018-11-04T04:58:24.008Z,4.05
2018-11-04T05:00:53.171Z,3.65
2018-11-04T05:03:21.891Z,4.00
2018-11-04T05:05:50.848Z,4.00
2018-11-04T05:08:19.209Z,4.00
2018-11-04T05:10:47.857Z,4.00
2018-11-04T05:13:16.772Z,4.00
2018-11-04T05:15:45.260Z,4.42
2018-11-04T05:18:13.573Z,3.55
2018-11-04T05:20:42.178Z,4.00
2018-11-04T05:23:10.608Z,4.60
2018-11-04T05:25:38.955Z,3.70
2018-11-04T05:28:08.531Z,4.17
2018-11-04T05:30:37.157Z,4.00
2018-11-04T05:33:05.748Z,3.60
2018-11-04T05:35:34.114Z,3.92
2018-11-04T05:38:02.486Z,3.83
2018-11-04T05:40:30.872Z,4.40
2018-11-04T05:42:59.889Z,3.95
2018-11-04T05:45:28.256Z,3.90
2018-11-04T05:47:57.970Z,3.77
2018-11-04T05:50:26.998Z,3.87
2018-11-04T05:52:55.395Z,3.72
2018-11-04T05:55:23.910Z,3.80
2018-11-04T05:57:52.946Z,3.65
2018-11-04T06:00:21.443Z,3.75
2018-11-04T06:02:49.967Z,3.60
2018-11-04T06:05:18.331Z,3.52
2018-11-04T06:07:47.287Z,3.40
2018-11-04T06:10:15.666Z,3.37
2018-11-04T06:12:44.135Z,3.72
2018-11-04T06:15:12.495Z,3.20
2018-11-04T06:17:40.862Z,3.47
2018-11-04T06:20:10.372Z,3.85
2018-11-04T06:22:38.809Z,3.52
2018-11-04T06:25:07.449Z,3.27
2018-11-04T06:27:36.428Z,3.37
2018-11-04T06:30:07.052Z,3.52
2018-11-04T06:32:35.517Z,3.40
2018-11-04T06:35:04.202Z,3.25
2018-11-04T06:37:32.521Z,3.62
2018-11-04T06:40:00.974Z,3.40
2018-11-04T06:42:29.440Z,3.00
2018-11-04T06:44:57.936Z,3.60
2018-11-04T06:47:26.564Z,3.20
2018-11-04T06:49:54.936Z,3.37
2018-11-04T06:52:23.387Z,2.90
2018-11-04T06:54:51.842Z,3.10
2018-11-04T06:57:20.242Z,3.33
2018-11-04T06:59:48.771Z,3.08
2018-11-04T07:02:17.184Z,2.98
2018-11-04T07:04:45.914Z,2.90
2018-11-04T07:07:14.315Z,3.02
2018-11-04T07:09:43.542Z,3.30
2018-11-04T07:12:12.050Z,3.25
2018-11-04T07:14:40.432Z,3.25
2018-11-04T07:17:09.714Z,2.83
2018-11-04T07:19:38.992Z,3.10
2018-11-04T07:22:07.335Z,3.22
2018-11-04T07:24:35.889Z,2.77
2018-11-04T07:27:04.825Z,2.95
2018-11-04T07:29:33.230Z,3.27
2018-11-04T07:32:01.664Z,3.22
2018-11-04T07:34:29.993Z,3.35
2018-11-04T07:36:58.476Z,3.05
2018-11-04T07:39:27.383Z,3.33
2018-11-04T07:41:55.731Z,2.85
2018-11-04T07:44:24.204Z,3.33
2018-11-04T07:46:52.535Z,3.87
2018-11-04T07:49:21.643Z,3.55
2018-11-04T07:51:49.997Z,3.80
2018-11-04T07:54:18.403Z,3.72
2018-11-04T07:56:46.807Z,4.70
2018-11-04T07:59:15.573Z,4.42
2018-11-04T08:01:44.047Z,4.50
2018-11-04T08:04:12.504Z,5.47
2018-11-04T08:06:40.812Z,5.58
2018-11-04T08:09:10.582Z,5.80
2018-11-04T08:11:39.430Z,5.87
2018-11-04T08:14:07.796Z,5.55
2018-11-04T08:16:36.200Z,5.62
2018-11-04T08:19:05.694Z,5.60
2018-11-04T08:21:34.133Z,5.78
2018-11-04T08:24:02.537Z,6.03
2018-11-04T08:26:30.861Z,6.83
2018-11-04T08:29:00.020Z,6.37
2018-11-04T08:31:28.535Z,6.40
2018-11-04T08:33:56.977Z,6.00
2018-11-04T08:36:25.417Z,6.25
2018-11-04T08:38:53.871Z,6.97
2018-11-04T08:41:22.883Z,7.08
2018-11-04T08:43:51.246Z,6.80
2018-11-04T08:46:19.568Z,6.60
2018-11-04T08:48:47.938Z,6.55
2018-11-04T08:51:17.017Z,6.60
2018-11-04T08:53:45.467Z,6.50
2018-11-04T08:56:14.439Z,6.55
2018-11-04T08:58:42.941Z,7.30
2018-11-04T09:01:11.309Z,6.60
2018-11-04T09:03:39.812Z,6.87
2018-11-04T09:06:08.162Z,6.70
2018-11-04T09:08:37.440Z,8.33
2018-11-04T09:11:06.324Z,9.75
2018-11-04T09:13:34.702Z,9.05
2018-11-04T09:16:03.114Z,9.35
2018-11-04T09:18:31.472Z,9.43
2018-11-04T09:21:00.004Z,10.23
2018-11-04T09:23:28.341Z,10.05
2018-11-04T09:25:57.333Z,10.88
2018-11-04T09:28:25.704Z,10.60
2018-11-04T09:30:54.197Z,10.80
2018-11-04T09:33:22.550Z,10.65
2018-11-04T09:35:51.202Z,11.15
2018-11-04T09:38:19.953Z,11.20
2018-11-04T09:40:48.488Z,11.48
2018-11-04T09:43:16.976Z,10.90
2018-11-04T09:45:46.003Z,10.03
2018-11-04T09:48:15.222Z,10.50
2018-11-04T09:50:43.610Z,9.40
2018-11-04T09:53:12.034Z,10.48
2018-11-04T09:55:41.146Z,9.08
2018-11-04T09:58:09.679Z,8.68
2018-11-04T10:00:38.180Z,8.88
2018-11-04T10:03:06.610Z,8.88
2018-11-04T10:05:35.097Z,8.93
2018-11-04T10:08:03.515Z,8.50
2018-11-04T10:10:31.900Z,8.75
2018-11-04T10:13:00.373Z,8.43
2018-11-04T10:15:29.405Z,7.95
2018-11-04T10:17:57.764Z,7.55
2018-11-04T10:20:26.503Z,7.30
2018-11-04T10:22:54.671Z,7.40
2018-11-04T10:25:23.234Z,7.33
2018-11-04T10:27:51.637Z,7.20
2018-11-04T10:30:20.169Z,6.97
2018-11-04T10:32:48.537Z,6.78
2018-11-04T10:35:16.877Z,7.28
2018-11-04T10:37:45.335Z,6.80
2018-11-04T10:40:14.037Z,6.75
2018-11-04T10:42:42.491Z,6.53
2018-11-04T10:45:11.729Z,5.92
2018-11-04T10:47:40.097Z,5.87
2018-11-04T10:50:10.431Z,5.83
2018-11-04T10:52:38.926Z,5.67
2018-11-04T10:55:08.499Z,5.97
2018-11-04T10:57:36.909Z,5.62
2018-11-04T11:00:11.897Z,5.75
2018-11-04T11:02:40.905Z,5.50
2018-11-04T11:05:09.944Z,5.87
2018-11-04T11:07:38.357Z,5.42
2018-11-04T11:10:07.917Z,5.45
2018-11-04T11:12:36.247Z,6.30
2018-11-04T11:15:05.959Z,5.20
2018-11-04T11:17:34.387Z,5.53
2018-11-04T11:20:02.750Z,5.35
2018-11-04T11:22:31.248Z,5.33
2018-11-04T11:24:59.614Z,5.30
2018-11-04T11:27:28.776Z,5.20
2018-11-04T11:29:57.208Z,4.78
2018-11-04T11:32:25.542Z,5.35
2018-11-04T11:34:54.006Z,5.62
2018-11-04T11:37:22.521Z,5.35
2018-11-04T11:39:50.939Z,5.10
2018-11-04T11:42:19.378Z,5.33
2018-11-04T11:44:47.907Z,5.22
2018-11-04T11:47:16.356Z,5.25
2018-11-04T11:49:44.952Z,5.60
2018-11-04T11:52:13.328Z,5.62
2018-11-04T11:54:41.852Z,6.15
2018-11-04T11:57:10.276Z,5.37
2018-11-04T11:59:38.651Z,5.03
2018-11-04T12:02:07.399Z,4.78
2018-11-04T12:04:35.730Z,5.45
2018-11-04T12:07:04.180Z,4.75
2018-11-04T12:09:32.611Z,4.75
2018-11-04T12:12:01.077Z,5.08
2018-11-04T12:14:29.568Z,4.92
2018-11-04T12:16:57.977Z,4.60
2018-11-04T12:19:26.311Z,4.95
2018-11-04T12:21:55.651Z,4.75
2018-11-04T12:24:24.644Z,4.70
2018-11-04T12:26:53.239Z,4.78
2018-11-04T12:29:21.579Z,4.30
2018-11-04T12:31:49.954Z,4.40
2018-11-04T12:34:18.430Z,4.15
2018-11-04T12:36:46.917Z,4.37
2018-11-04T12:39:15.327Z,4.10
2018-11-04T12:41:43.718Z,4.40
2018-11-04T12:44:12.082Z,4.08
2018-11-04T12:46:40.557Z,4.60
2018-11-04T12:49:08.937Z,4.25
2018-11-04T12:51:37.339Z,4.22
2018-11-04T12:54:05.709Z,4.05
2018-11-04T12:56:34.198Z,4.05
2018-11-04T12:59:02.506Z,3.98
2018-11-04T13:01:31.054Z,3.87
2018-11-04T13:04:00.386Z,3.77
2018-11-04T13:06:28.725Z,3.92
2018-11-04T13:08:57.712Z,3.65
2018-11-04T13:11:26.144Z,3.95
2018-11-04T13:13:54.432Z,3.37
2018-11-04T13:16:22.795Z,3.58
2018-11-04T13:18:51.714Z,3.90
2018-11-04T13:21:20.162Z,4.05
2018-11-04T13:23:48.510Z,3.60
2018-11-04T13:26:16.924Z,4.05
2018-11-04T13:28:45.780Z,3.55
2018-11-04T13:31:14.148Z,3.90
2018-11-04T13:33:42.554Z,3.70
2018-11-04T13:36:10.954Z,3.55
2018-11-04T13:38:39.502Z,3.75
2018-11-04T13:41:07.828Z,3.60
2018-11-04T13:43:36.321Z,3.65
2018-11-04T13:46:04.786Z,3.50
2018-11-04T13:48:33.140Z,4.00
2018-11-04T13:51:01.545Z,3.40
2018-11-04T13:53:29.964Z,3.92
2018-11-04T13:55:58.692Z,3.42
2018-11-04T13:58:27.098Z,3.87
2018-11-04T14:00:55.550Z,3.98
2018-11-04T14:03:23.955Z,4.05
2018-11-04T14:05:52.406Z,4.22
2018-11-04T14:08:20.815Z,4.53
2018-11-04T14:10:49.320Z,4.45
2018-11-04T14:13:17.795Z,5.08
2018-11-04T14:15:46.108Z,4.75
2018-11-04T14:18:14.905Z,4.80
2018-11-04T14:20:43.262Z,4.53
2018-11-04T14:23:11.621Z,4.17
2018-11-04T14:25:39.981Z,3.80
2018-11-04T14:28:08.350Z,4.20
2018-11-04T14:30:36.736Z,4.50
2018-11-04T14:33:05.180Z,3.90
2018-11-04T14:35:33.501Z,4.62
2018-11-04T14:38:01.909Z,4.50
2018-11-04T14:40:30.367Z,4.33
2018-11-04T14:42:58.735Z,4.20
2018-11-04T14:45:28.149Z,4.70
2018-11-04T14:47:56.617Z,4.08
2018-11-04T14:50:24.965Z,3.95
2018-11-04T14:52:53.410Z,4.00
2018-11-04T14:55:21.675Z,4.05
2018-11-04T14:57:50.149Z,3.80
2018-11-04T15:00:18.539Z,3.92
2018-11-04T15:02:46.915Z,3.80
2018-11-04T15:05:15.287Z,3.75
2018-11-04T15:07:43.742Z,3.80
2018-11-04T15:10:13.495Z,3.92
2018-11-04T15:12:42.477Z,4.00
2018-11-04T15:15:13.648Z,3.60
2018-11-04T15:17:42.185Z,3.72
2018-11-04T15:20:11.445Z,4.10
2018-11-04T15:22:46.188Z,4.05
2018-11-04T15:25:15.557Z,4.00
2018-11-04T15:27:44.087Z,3.67
2018-11-04T15:30:12.820Z,4.03
2018-11-04T15:32:41.899Z,3.85
2018-11-04T15:35:10.475Z,3.72
2018-11-04T15:37:38.921Z,3.60
2018-11-04T15:40:09.205Z,4.00
2018-11-04T15:42:37.598Z,3.52
2018-11-04T15:45:07.611Z,3.87
2018-11-04T15:47:36.017Z,3.27
2018-11-04T15:50:05.925Z,3.40
2018-11-04T15:52:34.326Z,3.75
2018-11-04T15:55:02.798Z,3.25
2018-11-04T15:57:31.152Z,3.40
2018-11-04T15:59:59.560Z,3.10
2018-11-04T16:02:27.898Z,3.40
2018-11-04T16:04:56.322Z,3.75
2018-11-04T16:07:24.775Z,3.45
2018-11-04T16:09:53.296Z,3.45
2018-11-04T16:12:21.742Z,3.20
2018-11-04T16:14:50.734Z,3.35
2018-11-04T16:17:19.096Z,3.35
2018-11-04T16:19:47.542Z,3.20
2018-11-04T16:22:15.978Z,3.37
2018-11-04T16:24:44.366Z,3.30
2018-11-04T16:27:12.726Z,3.40
2018-11-04T16:29:41.130Z,3.47
2018-11-04T16:32:09.553Z,3.52
2018-11-04T16:34:37.851Z,3.70
2018-11-04T16:37:06.752Z,3.95
2018-11-04T16:39:35.320Z,4.05
2018-11-04T16:42:03.746Z,4.28
2018-11-04T16:44:32.382Z,5.12
2018-11-04T16:47:00.912Z,4.78
2018-11-04T16:49:29.386Z,5.03
2018-11-04T16:51:57.755Z,4.20
2018-11-04T16:54:26.310Z,4.40
2018-11-04T16:56:55.653Z,4.35
2018-11-04T16:59:25.229Z,4.03
2018-11-04T17:01:53.625Z,4.97
2018-11-04T17:04:23.524Z,5.40
2018-11-04T17:06:51.912Z,4.30
2018-11-04T17:09:20.318Z,4.50
2018-11-04T17:11:48.815Z,4.70
2018-11-04T17:14:17.388Z,4.25
2018-11-04T17:16:46.663Z,4.72
2018-11-04T17:19:15.111Z,5.22
2018-11-04T17:21:43.652Z,4.97
2018-11-04T17:24:15.054Z,4.67
2018-11-04T17:26:43.640Z,4.70
2018-11-04T17:29:12.128Z,6.08
2018-11-04T17:31:40.528Z,7.30
2018-11-04T17:34:08.922Z,7.40
2018-11-04T17:36:37.366Z,6.83
2018-11-04T17:39:08.234Z,6.53
2018-11-04T17:41:36.606Z,6.55
2018-11-04T17:44:05.587Z,6.40
2018-11-04T17:46:33.947Z,6.85
2018-11-04T17:49:03.215Z,6.10
2018-11-04T17:51:31.585Z,6.67
2018-11-04T17:53:59.978Z,6.95
2018-11-04T17:56:28.332Z,7.53
2018-11-04T17:58:56.698Z,7.55
2018-11-04T18:01:25.406Z,6.80
2018-11-04T18:03:53.749Z,7.12
2018-11-04T18:06:22.228Z,8.18
2018-11-04T18:08:50.988Z,8.08
2018-11-04T18:11:19.607Z,10.25
2018-11-04T18:13:48.111Z,10.08
2018-11-04T18:16:16.496Z,10.68
2018-11-04T18:18:45.423Z,12.20
2018-11-04T18:21:14.893Z,10.30
2018-11-04T18:23:43.268Z,10.13
2018-11-04T18:26:11.641Z,9.88
2018-11-04T18:28:39.968Z,9.23
2018-11-04T18:31:08.560Z,8.98
2018-11-04T18:33:37.026Z,9.50
2018-11-04T18:36:06.289Z,10.25
2018-11-04T18:38:34.683Z,9.93
2018-11-04T18:41:04.846Z,11.15
2018-11-04T18:43:33.387Z,10.78
2018-11-04T18:46:02.546Z,10.88
2018-11-04T18:48:31.226Z,10.50
2018-11-04T18:51:00.873Z,10.63
2018-11-04T18:53:30.236Z,10.90
2018-11-04T18:55:59.184Z,10.58
2018-11-04T18:58:27.848Z,10.72
2018-11-04T19:00:56.500Z,10.75
2018-11-04T19:03:24.984Z,10.90
2018-11-04T19:05:53.448Z,10.20
2018-11-04T19:08:22.489Z,9.98
2018-11-04T19:10:50.934Z,9.90
2018-11-04T19:13:19.381Z,10.58
2018-11-04T19:15:47.966Z,9.70
2018-11-04T19:18:16.656Z,10.08
2018-11-04T19:20:46.448Z,9.50
2018-11-04T19:23:14.905Z,9.43
2018-11-04T19:25:43.313Z,9.48
2018-11-04T19:28:11.708Z,9.40
2018-11-04T19:30:40.771Z,8.75
2018-11-04T19:33:09.308Z,9.83
2018-11-04T19:35:37.740Z,8.78
2018-11-04T19:38:06.756Z,9.08
2018-11-04T19:40:35.118Z,8.70
2018-11-04T19:43:03.535Z,8.03
2018-11-04T19:45:32.467Z,8.63
2018-11-04T19:48:00.869Z,8.08
2018-11-04T19:50:29.144Z,8.08
2018-11-04T19:52:58.524Z,8.00
2018-11-04T19:55:26.991Z,8.15
2018-11-04T19:57:55.386Z,7.62
2018-11-04T20:00:23.810Z,7.78
2018-11-04T20:02:53.639Z,7.42
2018-11-04T20:05:22.947Z,7.03
2018-11-04T20:07:51.242Z,6.72
2018-11-04T20:10:20.494Z,7.30
2018-11-04T20:12:54.186Z,7.20
2018-11-04T20:15:22.567Z,7.12
2018-11-04T20:17:51.132Z,7.05
2018-11-04T20:20:22.261Z,6.60
2018-11-04T20:22:50.644Z,6.50
2018-11-04T20:25:24.351Z,6.22
2018-11-04T20:27:53.208Z,6.15
2018-11-04T20:30:21.678Z,6.60
2018-11-04T20:32:56.114Z,6.35
2018-11-04T20:35:24.535Z,6.60
2018-11-04T20:37:52.921Z,6.60
2018-11-04T20:40:26.594Z,6.35
2018-11-04T20:42:54.990Z,6.30
2018-11-04T20:45:23.467Z,5.87
2018-11-04T20:47:57.355Z,6.17
2018-11-04T20:50:30.948Z,5.42
2018-11-04T20:52:59.337Z,6.08
2018-11-04T20:55:33.197Z,5.50
2018-11-04T20:58:01.907Z,5.72
2018-11-04T21:00:30.219Z,5.78
2018-11-04T21:02:58.638Z,5.47
2018-11-04T21:05:27.148Z,5.75
2018-11-04T21:07:55.598Z,5.87
2018-11-04T21:10:24.367Z,5.90
2018-11-04T21:12:52.765Z,5.83
2018-11-04T21:15:21.180Z,5.30
2018-11-04T21:17:49.560Z,5.67
2018-11-04T21:20:18.252Z,5.72
2018-11-04T21:22:46.647Z,5.30
2018-11-04T21:25:15.051Z,5.30
2018-11-04T21:27:43.401Z,5.35
2018-11-04T21:30:12.996Z,5.67
2018-11-04T21:32:41.482Z,5.00
2018-11-04T21:35:09.908Z,5.10
2018-11-04T21:37:38.447Z,5.90
2018-11-04T21:40:08.392Z,5.25
2018-11-04T21:42:37.119Z,5.28
2018-11-04T21:45:07.072Z,5.33
2018-11-04T21:47:36.531Z,5.33
2018-11-04T21:50:05.692Z,5.33
2018-11-04T21:52:34.083Z,5.20
2018-11-04T21:55:02.468Z,5.30
2018-11-04T21:57:30.796Z,5.12
2018-11-04T21:59:59.986Z,5.10
2018-11-04T22:02:28.571Z,4.70
2018-11-04T22:04:56.784Z,4.75
2018-11-04T22:07:25.165Z,5.45
2018-11-04T22:09:53.598Z,5.50
2018-11-04T22:12:21.983Z,5.12
2018-11-04T22:14:50.366Z,5.22
2018-11-04T22:17:18.800Z,4.97
2018-11-04T22:19:48.133Z,5.15
2018-11-04T22:22:16.506Z,5.70
2018-11-04T22:24:44.902Z,5.10
2018-11-04T22:27:13.379Z,4.95
2018-11-04T22:29:41.996Z,4.95
2018-11-04T22:32:10.956Z,5.08
2018-11-04T22:34:39.451Z,5.25
2018-11-04T22:37:07.834Z,4.78
2018-11-04T22:39:36.169Z,4.87
2018-11-04T22:42:04.692Z,4.92
2018-11-04T22:44:33.013Z,4.62
2018-11-04T22:47:01.393Z,4.75
2018-11-04T22:49:29.911Z,4.40
2018-11-04T22:51:58.804Z,4.55
2018-11-04T22:54:27.182Z,5.05
2018-11-04T22:56:55.554Z,4.90
2018-11-04T22:59:23.987Z,4.80
2018-11-04T23:01:52.627Z,4.60
2018-11-04T23:04:27.021Z,4.72
2018-11-04T23:06:55.429Z,4.53
2018-11-04T23:09:23.821Z,4.30
2018-11-04T23:11:52.189Z,4.58
2018-11-04T23:14:21.285Z,4.47
2018-11-04T23:16:49.735Z,4.60
2018-11-04T23:19:18.075Z,4.62
2018-11-04T23:21:46.776Z,4.80
2018-11-04T23:24:15.210Z,4.67
2018-11-04T23:26:43.594Z,4.22
2018-11-04T23:29:12.052Z,4.70
2018-11-04T23:31:40.467Z,4.42
2018-11-04T23:34:08.876Z,5.17
2018-11-04T23:36:37.331Z,4.30
2018-11-04T23:39:07.428Z,4.33
2018-11-04T23:41:36.744Z,4.50
2018-11-04T23:44:05.280Z,4.95
2018-11-04T23:46:33.733Z,4.78
2018-11-04T23:49:02.187Z,4.97
2018-11-04T23:51:30.673Z,4.72
2018-11-04T23:53:59.318Z,4.50
2018-11-04T23:56:27.781Z,4.75
2018-11-04T23:58:56.128Z,4.37
